sensor_id;sensor_type;location;lat;lon;timestamp;temperature;humidity
12049;DHT22;6085;49.452;8.502;2022-12-07T00:03:17;3.60;99.90
12049;DHT22;6085;49.452;8.502;2022-12-07T00:07:18;3.60;99.90
12049;DHT22;6085;49.452;8.502;2022-12-07T00:11:22;3.60;99.90
12049;DHT22;6085;49.452;8.502;2022-12-07T00:15:24;3.60;99.90
12049;DHT22;6085;49.452;8.502;2022-12-07T00:19:27;3.60;99.90
12049;DHT22;6085;49.452;8.502;2022-12-07T00:23:29;3.70;99.90
12049;DHT22;6085;49.452;8.502;2022-12-07T00:27:31;3.60;99.90
12049;DHT22;6085;49.452;8.502;2022-12-07T00:31:35;3.60;99.90
12049;DHT22;6085;49.452;8.502;2022-12-07T00:35:40;3.60;99.90
12049;DHT22;6085;49.452;8.502;2022-12-07T00:39:42;3.60;99.90
12049;DHT22;6085;49.452;8.502;2022-12-07T00:43:45;3.60;99.90
12049;DHT22;6085;49.452;8.502;2022-12-07T00:47:47;3.50;99.90
12049;DHT22;6085;49.452;8.502;2022-12-07T00:51:50;3.50;99.90
12049;DHT22;6085;49.452;8.502;2022-12-07T00:55:52;3.50;99.90
12049;DHT22;6085;49.452;8.502;2022-12-07T00:59:56;3.50;99.90
12049;DHT22;6085;49.452;8.502;2022-12-07T01:03:58;3.50;99.90
12049;DHT22;6085;49.452;8.502;2022-12-07T01:08:03;3.50;99.90
12049;DHT22;6085;49.452;8.502;2022-12-07T01:12:05;3.50;99.90
12049;DHT22;6085;49.452;8.502;2022-12-07T01:16:08;3.50;99.90
12049;DHT22;6085;49.452;8.502;2022-12-07T01:20:12;3.50;99.90
12049;DHT22;6085;49.452;8.502;2022-12-07T01:24:15;3.50;99.90
12049;DHT22;6085;49.452;8.502;2022-12-07T01:28:17;3.50;99.90
12049;DHT22;6085;49.452;8.502;2022-12-07T01:32:19;3.50;99.90
12049;DHT22;6085;49.452;8.502;2022-12-07T01:36:23;3.50;99.90
12049;DHT22;6085;49.452;8.502;2022-12-07T01:40:26;3.60;99.90
12049;DHT22;6085;49.452;8.502;2022-12-07T01:44:29;3.60;99.90
12049;DHT22;6085;49.452;8.502;2022-12-07T01:48:35;3.70;99.90
12049;DHT22;6085;49.452;8.502;2022-12-07T01:52:38;3.70;99.90
12049;DHT22;6085;49.452;8.502;2022-12-07T01:56:44;3.70;99.90
12049;DHT22;6085;49.452;8.502;2022-12-07T02:00:47;3.60;99.90
12049;DHT22;6085;49.452;8.502;2022-12-07T02:04:51;3.60;99.90
12049;DHT22;6085;49.452;8.502;2022-12-07T02:08:54;3.50;99.90
12049;DHT22;6085;49.452;8.502;2022-12-07T02:12:59;3.40;99.90
12049;DHT22;6085;49.452;8.502;2022-12-07T02:17:08;3.40;99.90
12049;DHT22;6085;49.452;8.502;2022-12-07T02:21:20;3.20;99.90
12049;DHT22;6085;49.452;8.502;2022-12-07T02:25:36;3.10;99.90
12049;DHT22;6085;49.452;8.502;2022-12-07T02:29:47;3.10;99.90
12049;DHT22;6085;49.452;8.502;2022-12-07T02:33:57;3.20;99.90
12049;DHT22;6085;49.452;8.502;2022-12-07T02:38:06;3.40;99.90
12049;DHT22;6085;49.452;8.502;2022-12-07T02:42:14;3.40;99.90
12049;DHT22;6085;49.452;8.502;2022-12-07T02:46:21;3.20;99.90
12049;DHT22;6085;49.452;8.502;2022-12-07T02:50:23;2.90;99.90
12049;DHT22;6085;49.452;8.502;2022-12-07T02:54:25;2.60;99.90
12049;DHT22;6085;49.452;8.502;2022-12-07T02:58:35;2.40;99.90
12049;DHT22;6085;49.452;8.502;2022-12-07T03:02:53;2.40;99.90
12049;DHT22;6085;49.452;8.502;2022-12-07T03:07:00;2.40;99.90
12049;DHT22;6085;49.452;8.502;2022-12-07T03:11:06;2.60;99.90
12049;DHT22;6085;49.452;8.502;2022-12-07T03:15:13;2.80;99.90
12049;DHT22;6085;49.452;8.502;2022-12-07T03:19:19;3.00;99.90
12049;DHT22;6085;49.452;8.502;2022-12-07T03:23:22;3.10;99.90
12049;DHT22;6085;49.452;8.502;2022-12-07T03:27:31;3.30;99.90
12049;DHT22;6085;49.452;8.502;2022-12-07T03:31:37;3.40;99.90
12049;DHT22;6085;49.452;8.502;2022-12-07T03:35:45;3.40;99.90
12049;DHT22;6085;49.452;8.502;2022-12-07T03:39:57;3.40;99.90
12049;DHT22;6085;49.452;8.502;2022-12-07T03:44:01;3.40;99.90
12049;DHT22;6085;49.452;8.502;2022-12-07T03:48:08;3.50;99.90
12049;DHT22;6085;49.452;8.502;2022-12-07T03:52:21;3.50;99.90
12049;DHT22;6085;49.452;8.502;2022-12-07T03:56:26;3.50;99.90
12049;DHT22;6085;49.452;8.502;2022-12-07T04:00:30;3.60;99.90
12049;DHT22;6085;49.452;8.502;2022-12-07T04:04:33;3.60;99.90
12049;DHT22;6085;49.452;8.502;2022-12-07T04:08:37;3.60;99.90
12049;DHT22;6085;49.452;8.502;2022-12-07T04:12:39;3.60;99.90
12049;DHT22;6085;49.452;8.502;2022-12-07T04:16:40;3.60;99.90
12049;DHT22;6085;49.452;8.502;2022-12-07T04:20:42;3.60;99.90
12049;DHT22;6085;49.452;8.502;2022-12-07T04:24:46;3.60;99.90
12049;DHT22;6085;49.452;8.502;2022-12-07T04:28:47;3.60;99.90
12049;DHT22;6085;49.452;8.502;2022-12-07T04:32:49;3.60;99.90
12049;DHT22;6085;49.452;8.502;2022-12-07T04:36:51;3.70;99.90
12049;DHT22;6085;49.452;8.502;2022-12-07T04:40:54;3.70;99.90
12049;DHT22;6085;49.452;8.502;2022-12-07T04:44:56;3.60;99.90
12049;DHT22;6085;49.452;8.502;2022-12-07T04:48:58;3.70;99.90
12049;DHT22;6085;49.452;8.502;2022-12-07T04:53:00;3.70;99.90
12049;DHT22;6085;49.452;8.502;2022-12-07T04:57:03;3.60;99.90
12049;DHT22;6085;49.452;8.502;2022-12-07T05:01:05;3.50;99.90
12049;DHT22;6085;49.452;8.502;2022-12-07T05:05:07;3.30;99.90
12049;DHT22;6085;49.452;8.502;2022-12-07T05:09:09;3.20;99.90
12049;DHT22;6085;49.452;8.502;2022-12-07T05:13:12;3.20;99.90
12049;DHT22;6085;49.452;8.502;2022-12-07T05:17:14;3.10;99.90
12049;DHT22;6085;49.452;8.502;2022-12-07T05:21:17;3.10;99.90
12049;DHT22;6085;49.452;8.502;2022-12-07T05:25:19;3.20;99.90
12049;DHT22;6085;49.452;8.502;2022-12-07T05:29:22;3.20;99.90
12049;DHT22;6085;49.452;8.502;2022-12-07T05:33:24;3.20;99.90
12049;DHT22;6085;49.452;8.502;2022-12-07T05:37:26;3.20;99.90
12049;DHT22;6085;49.452;8.502;2022-12-07T05:41:28;3.20;99.90
12049;DHT22;6085;49.452;8.502;2022-12-07T05:45:48;3.20;99.90
12049;DHT22;6085;49.452;8.502;2022-12-07T05:49:50;3.20;99.90
12049;DHT22;6085;49.452;8.502;2022-12-07T05:53:52;3.20;99.90
12049;DHT22;6085;49.452;8.502;2022-12-07T05:57:54;3.20;99.90
12049;DHT22;6085;49.452;8.502;2022-12-07T06:02:12;3.20;99.90
12049;DHT22;6085;49.452;8.502;2022-12-07T06:06:14;3.20;99.90
12049;DHT22;6085;49.452;8.502;2022-12-07T06:10:16;3.20;99.90
12049;DHT22;6085;49.452;8.502;2022-12-07T06:14:18;3.20;99.90
12049;DHT22;6085;49.452;8.502;2022-12-07T06:18:22;3.20;99.90
12049;DHT22;6085;49.452;8.502;2022-12-07T06:22:28;3.20;99.90
12049;DHT22;6085;49.452;8.502;2022-12-07T06:26:44;3.20;99.90
12049;DHT22;6085;49.452;8.502;2022-12-07T06:30:46;3.20;99.90
12049;DHT22;6085;49.452;8.502;2022-12-07T06:34:49;3.20;99.90
12049;DHT22;6085;49.452;8.502;2022-12-07T06:38:51;3.30;99.90
12049;DHT22;6085;49.452;8.502;2022-12-07T06:42:52;3.30;99.90
12049;DHT22;6085;49.452;8.502;2022-12-07T06:46:54;3.30;99.90
12049;DHT22;6085;49.452;8.502;2022-12-07T06:50:58;3.40;99.90
12049;DHT22;6085;49.452;8.502;2022-12-07T06:55:00;3.50;99.90
12049;DHT22;6085;49.452;8.502;2022-12-07T06:59:02;3.60;99.90
12049;DHT22;6085;49.452;8.502;2022-12-07T07:03:04;3.50;99.90
12049;DHT22;6085;49.452;8.502;2022-12-07T07:07:07;3.50;99.90
12049;DHT22;6085;49.452;8.502;2022-12-07T07:11:10;3.60;99.90
12049;DHT22;6085;49.452;8.502;2022-12-07T07:15:12;3.60;99.90
12049;DHT22;6085;49.452;8.502;2022-12-07T07:19:14;3.60;99.90
12049;DHT22;6085;49.452;8.502;2022-12-07T07:23:17;3.70;99.90
12049;DHT22;6085;49.452;8.502;2022-12-07T07:27:19;3.70;99.90
12049;DHT22;6085;49.452;8.502;2022-12-07T07:31:21;3.70;99.90
12049;DHT22;6085;49.452;8.502;2022-12-07T07:35:22;3.70;99.90
12049;DHT22;6085;49.452;8.502;2022-12-07T07:39:26;3.80;99.90
12049;DHT22;6085;49.452;8.502;2022-12-07T07:43:27;3.80;99.90
12049;DHT22;6085;49.452;8.502;2022-12-07T07:47:29;3.80;99.90
12049;DHT22;6085;49.452;8.502;2022-12-07T07:51:31;3.80;99.90
12049;DHT22;6085;49.452;8.502;2022-12-07T07:55:34;3.90;99.90
12049;DHT22;6085;49.452;8.502;2022-12-07T07:59:36;3.90;99.90
12049;DHT22;6085;49.452;8.502;2022-12-07T08:03:38;4.00;99.90
12049;DHT22;6085;49.452;8.502;2022-12-07T08:07:40;4.10;99.90
12049;DHT22;6085;49.452;8.502;2022-12-07T08:11:43;4.20;99.90
12049;DHT22;6085;49.452;8.502;2022-12-07T08:15:47;4.20;99.90
12049;DHT22;6085;49.452;8.502;2022-12-07T08:19:49;4.30;99.90
12049;DHT22;6085;49.452;8.502;2022-12-07T08:23:50;4.30;99.90
12049;DHT22;6085;49.452;8.502;2022-12-07T08:27:54;4.30;99.90
12049;DHT22;6085;49.452;8.502;2022-12-07T08:31:56;4.30;99.90
12049;DHT22;6085;49.452;8.502;2022-12-07T08:36:00;4.30;99.90
12049;DHT22;6085;49.452;8.502;2022-12-07T08:40:03;4.40;99.90
12049;DHT22;6085;49.452;8.502;2022-12-07T08:44:07;4.50;99.90
12049;DHT22;6085;49.452;8.502;2022-12-07T08:48:11;4.70;99.90
12049;DHT22;6085;49.452;8.502;2022-12-07T08:52:14;4.90;99.90
12049;DHT22;6085;49.452;8.502;2022-12-07T08:56:17;5.00;99.90
12049;DHT22;6085;49.452;8.502;2022-12-07T09:00:21;5.10;99.90
12049;DHT22;6085;49.452;8.502;2022-12-07T09:04:23;5.20;99.90
12049;DHT22;6085;49.452;8.502;2022-12-07T09:08:28;5.20;99.90
12049;DHT22;6085;49.452;8.502;2022-12-07T09:12:31;5.10;99.90
12049;DHT22;6085;49.452;8.502;2022-12-07T09:16:35;4.90;99.90
12049;DHT22;6085;49.452;8.502;2022-12-07T09:20:37;4.70;99.90
12049;DHT22;6085;49.452;8.502;2022-12-07T09:24:38;4.70;99.90
12049;DHT22;6085;49.452;8.502;2022-12-07T09:28:40;4.60;99.90
12049;DHT22;6085;49.452;8.502;2022-12-07T09:32:43;4.60;99.90
12049;DHT22;6085;49.452;8.502;2022-12-07T09:36:45;4.70;99.90
12049;DHT22;6085;49.452;8.502;2022-12-07T09:40:47;4.80;99.90
12049;DHT22;6085;49.452;8.502;2022-12-07T09:44:49;4.90;99.90
12049;DHT22;6085;49.452;8.502;2022-12-07T09:48:52;5.00;99.90
12049;DHT22;6085;49.452;8.502;2022-12-07T09:53:03;5.00;99.90
12049;DHT22;6085;49.452;8.502;2022-12-07T09:57:08;5.10;99.90
12049;DHT22;6085;49.452;8.502;2022-12-07T10:01:13;5.30;99.90
12049;DHT22;6085;49.452;8.502;2022-12-07T10:05:22;5.60;99.90
12049;DHT22;6085;49.452;8.502;2022-12-07T10:09:24;5.80;99.90
12049;DHT22;6085;49.452;8.502;2022-12-07T10:13:35;6.10;99.90
12049;DHT22;6085;49.452;8.502;2022-12-07T10:17:38;6.10;99.90
12049;DHT22;6085;49.452;8.502;2022-12-07T10:22:00;6.20;99.90
12049;DHT22;6085;49.452;8.502;2022-12-07T10:26:20;6.30;99.90
12049;DHT22;6085;49.452;8.502;2022-12-07T10:30:23;6.50;99.90
12049;DHT22;6085;49.452;8.502;2022-12-07T10:34:26;6.50;99.90
12049;DHT22;6085;49.452;8.502;2022-12-07T10:38:30;6.60;99.90
12049;DHT22;6085;49.452;8.502;2022-12-07T10:42:33;6.60;99.90
12049;DHT22;6085;49.452;8.502;2022-12-07T10:47:06;6.70;99.90
12049;DHT22;6085;49.452;8.502;2022-12-07T10:51:18;6.90;99.90
12049;DHT22;6085;49.452;8.502;2022-12-07T10:55:33;6.90;99.90
12049;DHT22;6085;49.452;8.502;2022-12-07T10:59:59;6.70;99.90
12049;DHT22;6085;49.452;8.502;2022-12-07T11:04:18;6.50;99.90
12049;DHT22;6085;49.452;8.502;2022-12-07T11:08:33;6.20;99.90
12049;DHT22;6085;49.452;8.502;2022-12-07T11:12:51;6.10;99.90
12049;DHT22;6085;49.452;8.502;2022-12-07T11:16:57;6.10;99.90
12049;DHT22;6085;49.452;8.502;2022-12-07T11:21:07;6.20;99.90
12049;DHT22;6085;49.452;8.502;2022-12-07T11:25:18;6.30;99.90
12049;DHT22;6085;49.452;8.502;2022-12-07T11:29:41;6.40;99.90
12049;DHT22;6085;49.452;8.502;2022-12-07T11:33:47;6.60;99.90
12049;DHT22;6085;49.452;8.502;2022-12-07T11:37:56;6.70;99.90
12049;DHT22;6085;49.452;8.502;2022-12-07T11:42:03;6.80;99.90
12049;DHT22;6085;49.452;8.502;2022-12-07T11:46:12;7.10;99.90
12049;DHT22;6085;49.452;8.502;2022-12-07T11:50:25;7.10;99.90
12049;DHT22;6085;49.452;8.502;2022-12-07T11:54:32;6.90;99.90
12049;DHT22;6085;49.452;8.502;2022-12-07T11:58:48;6.80;99.90
12049;DHT22;6085;49.452;8.502;2022-12-07T12:02:55;6.80;99.90
12049;DHT22;6085;49.452;8.502;2022-12-07T12:07:00;6.70;99.90
12049;DHT22;6085;49.452;8.502;2022-12-07T12:11:15;6.60;99.90
12049;DHT22;6085;49.452;8.502;2022-12-07T12:15:30;7.10;99.90
12049;DHT22;6085;49.452;8.502;2022-12-07T12:19:40;7.70;99.90
12049;DHT22;6085;49.452;8.502;2022-12-07T12:23:45;8.30;99.90
12049;DHT22;6085;49.452;8.502;2022-12-07T12:27:50;9.10;99.90
12049;DHT22;6085;49.452;8.502;2022-12-07T12:32:07;9.30;99.90
12049;DHT22;6085;49.452;8.502;2022-12-07T12:36:23;8.60;99.90
12049;DHT22;6085;49.452;8.502;2022-12-07T12:40:42;7.70;99.90
12049;DHT22;6085;49.452;8.502;2022-12-07T12:45:19;7.20;99.90
12049;DHT22;6085;49.452;8.502;2022-12-07T12:49:43;7.10;99.90
12049;DHT22;6085;49.452;8.502;2022-12-07T12:53:46;6.90;99.90
12049;DHT22;6085;49.452;8.502;2022-12-07T12:58:30;6.80;99.90
12049;DHT22;6085;49.452;8.502;2022-12-07T13:02:33;6.70;99.90
12049;DHT22;6085;49.452;8.502;2022-12-07T13:06:37;6.60;99.90
12049;DHT22;6085;49.452;8.502;2022-12-07T13:10:43;6.50;99.90
12049;DHT22;6085;49.452;8.502;2022-12-07T13:14:57;6.30;99.90
12049;DHT22;6085;49.452;8.502;2022-12-07T13:18:59;6.20;99.90
12049;DHT22;6085;49.452;8.502;2022-12-07T13:23:01;6.10;99.90
12049;DHT22;6085;49.452;8.502;2022-12-07T13:27:08;6.20;99.90
12049;DHT22;6085;49.452;8.502;2022-12-07T13:31:25;6.20;99.90
12049;DHT22;6085;49.452;8.502;2022-12-07T13:35:32;6.10;99.90
12049;DHT22;6085;49.452;8.502;2022-12-07T13:39:35;6.10;99.90
12049;DHT22;6085;49.452;8.502;2022-12-07T13:43:49;6.10;99.90
12049;DHT22;6085;49.452;8.502;2022-12-07T13:47:53;6.10;99.90
12049;DHT22;6085;49.452;8.502;2022-12-07T13:52:13;6.10;99.90
12049;DHT22;6085;49.452;8.502;2022-12-07T13:56:16;6.20;99.90
12049;DHT22;6085;49.452;8.502;2022-12-07T14:00:22;6.30;99.90
12049;DHT22;6085;49.452;8.502;2022-12-07T14:04:35;6.20;99.90
12049;DHT22;6085;49.452;8.502;2022-12-07T14:08:37;6.30;99.90
12049;DHT22;6085;49.452;8.502;2022-12-07T14:12:39;6.30;99.90
12049;DHT22;6085;49.452;8.502;2022-12-07T14:16:55;6.30;99.90
12049;DHT22;6085;49.452;8.502;2022-12-07T14:21:05;6.40;99.90
12049;DHT22;6085;49.452;8.502;2022-12-07T14:25:18;6.30;99.90
12049;DHT22;6085;49.452;8.502;2022-12-07T14:29:27;6.10;99.90
12049;DHT22;6085;49.452;8.502;2022-12-07T14:33:31;6.10;99.90
12049;DHT22;6085;49.452;8.502;2022-12-07T14:37:33;6.00;99.90
12049;DHT22;6085;49.452;8.502;2022-12-07T14:41:35;5.80;99.90
12049;DHT22;6085;49.452;8.502;2022-12-07T14:45:52;5.60;99.90
12049;DHT22;6085;49.452;8.502;2022-12-07T14:49:55;5.50;99.90
12049;DHT22;6085;49.452;8.502;2022-12-07T14:53:57;5.30;99.90
12049;DHT22;6085;49.452;8.502;2022-12-07T14:57:59;5.30;99.90
12049;DHT22;6085;49.452;8.502;2022-12-07T15:02:01;5.40;99.90
12049;DHT22;6085;49.452;8.502;2022-12-07T15:06:05;5.50;99.90
12049;DHT22;6085;49.452;8.502;2022-12-07T15:10:14;5.50;99.90
12049;DHT22;6085;49.452;8.502;2022-12-07T15:14:16;5.50;99.90
12049;DHT22;6085;49.452;8.502;2022-12-07T15:18:19;5.50;99.90
12049;DHT22;6085;49.452;8.502;2022-12-07T15:22:22;5.50;99.90
12049;DHT22;6085;49.452;8.502;2022-12-07T15:26:24;5.40;99.90
12049;DHT22;6085;49.452;8.502;2022-12-07T15:30:26;5.40;99.90
12049;DHT22;6085;49.452;8.502;2022-12-07T15:34:28;5.40;99.90
12049;DHT22;6085;49.452;8.502;2022-12-07T15:38:33;5.40;99.90
12049;DHT22;6085;49.452;8.502;2022-12-07T15:42:36;5.40;99.90
12049;DHT22;6085;49.452;8.502;2022-12-07T15:46:40;5.30;99.90
12049;DHT22;6085;49.452;8.502;2022-12-07T15:50:42;5.30;99.90
12049;DHT22;6085;49.452;8.502;2022-12-07T15:54:45;5.20;99.90
12049;DHT22;6085;49.452;8.502;2022-12-07T15:58:48;5.20;99.90
12049;DHT22;6085;49.452;8.502;2022-12-07T16:02:50;5.20;99.90
12049;DHT22;6085;49.452;8.502;2022-12-07T16:06:52;5.20;99.90
12049;DHT22;6085;49.452;8.502;2022-12-07T16:10:55;5.20;99.90
12049;DHT22;6085;49.452;8.502;2022-12-07T16:14:57;5.30;99.90
12049;DHT22;6085;49.452;8.502;2022-12-07T16:18:58;5.20;99.90
12049;DHT22;6085;49.452;8.502;2022-12-07T16:23:00;5.20;99.90
12049;DHT22;6085;49.452;8.502;2022-12-07T16:27:04;5.20;99.90
12049;DHT22;6085;49.452;8.502;2022-12-07T16:31:07;5.10;99.90
12049;DHT22;6085;49.452;8.502;2022-12-07T16:35:10;5.10;99.90
12049;DHT22;6085;49.452;8.502;2022-12-07T16:39:12;5.10;99.90
12049;DHT22;6085;49.452;8.502;2022-12-07T16:43:16;5.10;99.90
12049;DHT22;6085;49.452;8.502;2022-12-07T16:47:17;5.00;99.90
12049;DHT22;6085;49.452;8.502;2022-12-07T16:51:19;4.90;99.90
12049;DHT22;6085;49.452;8.502;2022-12-07T16:55:21;4.90;99.90
12049;DHT22;6085;49.452;8.502;2022-12-07T16:59:24;4.90;99.90
12049;DHT22;6085;49.452;8.502;2022-12-07T17:03:26;4.90;99.90
12049;DHT22;6085;49.452;8.502;2022-12-07T17:07:28;4.80;99.90
12049;DHT22;6085;49.452;8.502;2022-12-07T17:11:30;4.80;99.90
12049;DHT22;6085;49.452;8.502;2022-12-07T17:15:33;4.80;99.90
12049;DHT22;6085;49.452;8.502;2022-12-07T17:19:35;4.80;99.90
12049;DHT22;6085;49.452;8.502;2022-12-07T17:23:37;4.70;99.90
12049;DHT22;6085;49.452;8.502;2022-12-07T17:27:39;4.70;99.90
12049;DHT22;6085;49.452;8.502;2022-12-07T17:31:43;4.60;99.90
12049;DHT22;6085;49.452;8.502;2022-12-07T17:35:44;4.60;99.90
12049;DHT22;6085;49.452;8.502;2022-12-07T17:39:46;4.60;99.90
12049;DHT22;6085;49.452;8.502;2022-12-07T17:43:48;4.60;99.90
12049;DHT22;6085;49.452;8.502;2022-12-07T17:47:51;4.60;99.90
12049;DHT22;6085;49.452;8.502;2022-12-07T17:51:54;4.50;99.90
12049;DHT22;6085;49.452;8.502;2022-12-07T17:56:13;4.50;99.90
12049;DHT22;6085;49.452;8.502;2022-12-07T18:00:16;4.50;99.90
12049;DHT22;6085;49.452;8.502;2022-12-07T18:04:20;4.50;99.90
12049;DHT22;6085;49.452;8.502;2022-12-07T18:08:22;4.50;99.90
12049;DHT22;6085;49.452;8.502;2022-12-07T18:12:24;4.50;99.90
12049;DHT22;6085;49.452;8.502;2022-12-07T18:16:27;4.40;99.90
12049;DHT22;6085;49.452;8.502;2022-12-07T18:20:31;4.30;99.90
12049;DHT22;6085;49.452;8.502;2022-12-07T18:24:32;4.40;99.90
12049;DHT22;6085;49.452;8.502;2022-12-07T18:28:34;4.30;99.90
12049;DHT22;6085;49.452;8.502;2022-12-07T18:32:37;4.20;99.90
12049;DHT22;6085;49.452;8.502;2022-12-07T18:36:46;4.20;99.90
12049;DHT22;6085;49.452;8.502;2022-12-07T18:40:49;4.10;99.90
12049;DHT22;6085;49.452;8.502;2022-12-07T18:44:51;4.10;99.90
12049;DHT22;6085;49.452;8.502;2022-12-07T18:48:53;4.00;99.90
12049;DHT22;6085;49.452;8.502;2022-12-07T18:52:58;4.00;99.90
12049;DHT22;6085;49.452;8.502;2022-12-07T18:57:00;4.00;99.90
12049;DHT22;6085;49.452;8.502;2022-12-07T19:01:02;4.00;99.90
12049;DHT22;6085;49.452;8.502;2022-12-07T19:05:04;4.00;99.90
12049;DHT22;6085;49.452;8.502;2022-12-07T19:09:07;4.00;99.90
12049;DHT22;6085;49.452;8.502;2022-12-07T19:13:09;3.90;99.90
12049;DHT22;6085;49.452;8.502;2022-12-07T19:17:12;3.90;99.90
12049;DHT22;6085;49.452;8.502;2022-12-07T19:21:14;3.90;99.90
12049;DHT22;6085;49.452;8.502;2022-12-07T19:25:18;3.90;99.90
12049;DHT22;6085;49.452;8.502;2022-12-07T19:29:19;3.90;99.90
12049;DHT22;6085;49.452;8.502;2022-12-07T19:33:21;3.80;99.90
12049;DHT22;6085;49.452;8.502;2022-12-07T19:37:23;3.80;99.90
12049;DHT22;6085;49.452;8.502;2022-12-07T19:41:26;3.80;99.90
12049;DHT22;6085;49.452;8.502;2022-12-07T19:45:34;3.80;99.90
12049;DHT22;6085;49.452;8.502;2022-12-07T19:49:36;3.80;99.90
12049;DHT22;6085;49.452;8.502;2022-12-07T19:53:38;3.80;99.90
12049;DHT22;6085;49.452;8.502;2022-12-07T19:57:41;3.70;99.90
12049;DHT22;6085;49.452;8.502;2022-12-07T20:01:43;3.80;99.90
12049;DHT22;6085;49.452;8.502;2022-12-07T20:05:45;3.80;99.90
12049;DHT22;6085;49.452;8.502;2022-12-07T20:09:47;3.70;99.90
12049;DHT22;6085;49.452;8.502;2022-12-07T20:13:51;3.70;99.90
12049;DHT22;6085;49.452;8.502;2022-12-07T20:17:53;3.60;99.90
12049;DHT22;6085;49.452;8.502;2022-12-07T20:21:55;3.70;99.90
12049;DHT22;6085;49.452;8.502;2022-12-07T20:26:01;3.70;99.90
12049;DHT22;6085;49.452;8.502;2022-12-07T20:30:06;3.80;99.90
12049;DHT22;6085;49.452;8.502;2022-12-07T20:34:08;3.80;99.90
12049;DHT22;6085;49.452;8.502;2022-12-07T20:38:11;3.80;99.90
12049;DHT22;6085;49.452;8.502;2022-12-07T20:42:13;3.80;99.90
12049;DHT22;6085;49.452;8.502;2022-12-07T20:46:33;3.80;99.90
12049;DHT22;6085;49.452;8.502;2022-12-07T20:50:35;3.80;99.90
12049;DHT22;6085;49.452;8.502;2022-12-07T20:54:37;3.70;99.90
12049;DHT22;6085;49.452;8.502;2022-12-07T20:58:39;3.70;99.90
12049;DHT22;6085;49.452;8.502;2022-12-07T21:02:42;3.70;99.90
12049;DHT22;6085;49.452;8.502;2022-12-07T21:06:44;3.60;99.90
12049;DHT22;6085;49.452;8.502;2022-12-07T21:10:46;3.60;99.90
12049;DHT22;6085;49.452;8.502;2022-12-07T21:14:48;3.60;99.90
12049;DHT22;6085;49.452;8.502;2022-12-07T21:18:52;3.60;99.90
12049;DHT22;6085;49.452;8.502;2022-12-07T21:22:54;3.60;99.90
12049;DHT22;6085;49.452;8.502;2022-12-07T21:26:56;3.60;99.90
12049;DHT22;6085;49.452;8.502;2022-12-07T21:30:58;3.60;99.90
12049;DHT22;6085;49.452;8.502;2022-12-07T21:35:01;3.50;99.90
12049;DHT22;6085;49.452;8.502;2022-12-07T21:39:03;3.50;99.90
12049;DHT22;6085;49.452;8.502;2022-12-07T21:43:05;3.50;99.90
12049;DHT22;6085;49.452;8.502;2022-12-07T21:47:07;3.50;99.90
12049;DHT22;6085;49.452;8.502;2022-12-07T21:51:12;3.40;99.90
12049;DHT22;6085;49.452;8.502;2022-12-07T21:55:14;3.40;99.90
12049;DHT22;6085;49.452;8.502;2022-12-07T21:59:16;3.40;99.90
12049;DHT22;6085;49.452;8.502;2022-12-07T22:03:20;3.40;99.90
12049;DHT22;6085;49.452;8.502;2022-12-07T22:07:23;3.30;99.90
12049;DHT22;6085;49.452;8.502;2022-12-07T22:11:25;3.30;99.90
12049;DHT22;6085;49.452;8.502;2022-12-07T22:15:28;3.30;99.90
12049;DHT22;6085;49.452;8.502;2022-12-07T22:19:30;3.30;99.90
12049;DHT22;6085;49.452;8.502;2022-12-07T22:23:33;3.30;99.90
12049;DHT22;6085;49.452;8.502;2022-12-07T22:27:34;3.30;99.90
12049;DHT22;6085;49.452;8.502;2022-12-07T22:31:36;3.30;99.90
12049;DHT22;6085;49.452;8.502;2022-12-07T22:35:41;3.30;99.90
12049;DHT22;6085;49.452;8.502;2022-12-07T22:39:45;3.20;99.90
12049;DHT22;6085;49.452;8.502;2022-12-07T22:43:47;3.30;99.90
12049;DHT22;6085;49.452;8.502;2022-12-07T22:47:49;3.30;99.90
12049;DHT22;6085;49.452;8.502;2022-12-07T22:51:51;3.30;99.90
12049;DHT22;6085;49.452;8.502;2022-12-07T22:55:54;3.30;99.90
12049;DHT22;6085;49.452;8.502;2022-12-07T22:59:56;3.30;99.90
12049;DHT22;6085;49.452;8.502;2022-12-07T23:03:57;3.30;99.90
12049;DHT22;6085;49.452;8.502;2022-12-07T23:07:59;3.30;99.90
12049;DHT22;6085;49.452;8.502;2022-12-07T23:12:03;3.30;99.90
12049;DHT22;6085;49.452;8.502;2022-12-07T23:16:22;3.30;99.90
12049;DHT22;6085;49.452;8.502;2022-12-07T23:20:24;3.30;99.90
12049;DHT22;6085;49.452;8.502;2022-12-07T23:24:26;3.30;99.90
12049;DHT22;6085;49.452;8.502;2022-12-07T23:28:29;3.30;99.90
12049;DHT22;6085;49.452;8.502;2022-12-07T23:32:31;3.30;99.90
12049;DHT22;6085;49.452;8.502;2022-12-07T23:36:33;3.30;99.90
12049;DHT22;6085;49.452;8.502;2022-12-07T23:40:35;3.30;99.90
12049;DHT22;6085;49.452;8.502;2022-12-07T23:44:39;3.30;99.90
12049;DHT22;6085;49.452;8.502;2022-12-07T23:48:41;3.20;99.90
12049;DHT22;6085;49.452;8.502;2022-12-07T23:52:43;3.30;99.90
12049;DHT22;6085;49.452;8.502;2022-12-07T23:56:45;3.30;99.90
